LS Concorde — ZDHJ7 — position and weather

sailwx.info

Track history (hours):
 
Tides and Currents Weather Stations Pressure Air Temp Water Temp Dewpoint Dewpoint Depression Visibility Wind Speed Wind Dir Waves Ship Positions

LS Concorde

Last reported at 2014-Oct-01 21:26 UTC. Time now 2014-Oct-02 04:25 UTC.
Position N 36°05' E 026°39'.

Length 99 m; draft 5.5 m.

Type: Tanker. MMSI: 236329000.

Date/timePositionNaut miles runAvg speedWind from/ knotsBaromVisibWave heightAir tempDewpointWater temp
2014-Oct-01 21:26N 36°05' E 026°39'1212.8
2014-Oct-01 20:29N 36°09' E 026°25'1512.5
2014-Oct-01 19:16N 36°09' E 026°06'912.5
2014-Oct-01 18:33N 36°09' E 025°55'1212.4
2014-Oct-01 17:33N 36°09' E 025°40'1212.3
2014-Oct-01 16:33N 36°09' E 025°24'1312.4
2014-Oct-01 15:33N 36°09' E 025°09'1312.6
2014-Oct-01 14:33N 36°10' E 024°53'1312.7
2014-Oct-01 13:33N 36°12' E 024°38'1312.8
2014-Oct-01 12:33N 36°13' E 024°22'1312.7
2014-Oct-01 11:33N 36°15' E 024°06'46111.8
2014-Sep-29 20:34N 36°38' E 014°34'1212.0
2014-Sep-29 19:34N 36°42' E 014°20'1312.6
2014-Sep-29 18:33N 36°47' E 014°06'1313.2
2014-Sep-29 17:34N 36°52' E 013°51'42011.7
2014-Sep-28 05:33N 37°24' E 005°06'1010.3
2014-Sep-28 04:33N 37°22' E 004°53'1211.6
2014-Sep-28 03:33N 37°20' E 004°39'1211.9
2014-Sep-28 02:33N 37°19' E 004°24'1212.0
2014-Sep-28 01:31N 37°16' E 004°08'46410.8
2014-Sep-26 06:33N 35°59' W 005°22'16013.3
2014-Sep-25 18:33N 36°25' W 008°37'6111.9
2014-Sep-25 13:26N 37°02' W 009°38'1213.3
2014-Sep-25 12:31N 37°14' W 009°41'1313.0
2014-Sep-25 11:32N 37°26' W 009°45'  
2014-Sep-22 09:29N 50°25' W 000°29'1611.9
2014-Sep-22 08:08N 50°29' W 000°05'711.2
2014-Sep-22 07:33N 50°31' E 000°05'1111.4
2014-Sep-22 06:34N 50°33' E 000°23'1212.3
2014-Sep-22 05:33N 50°37' E 000°41'1413.9
2014-Sep-22 04:33N 50°45' E 000°59'1714.3
2014-Sep-22 03:22N 50°56' E 001°20'1113.9
2014-Sep-22 02:33N 51°04' E 001°31'1212.4
2014-Sep-22 01:34N 51°13' E 001°45'1211.6
2014-Sep-22 00:33N 51°23' E 001°55'10 9.7
2014-Sep-21 23:33N 51°22' E 002°11'1010.1
2014-Sep-21 22:33N 51°22' E 002°27'1110.8
2014-Sep-21 21:31N 51°22' E 002°45'  
Track history (hours):
 
Tides and Currents Weather Stations Pressure Air Temp Water Temp Dewpoint Dewpoint Depression Visibility Wind Speed Wind Dir Waves Ship Positions

LS Concorde

Last reported at 2014-Oct-01 21:26 UTC. Time now 2014-Oct-02 04:25 UTC.
Position N 36°05' E 026°39'.

Length 99 m; draft 5.5 m.

Type: Tanker. MMSI: 236329000.

Date/timePositionNaut miles runAvg speedWind from/ knotsBaromVisibWave heightAir tempDewpointWater temp
2014-Oct-01 21:26N 36°05' E 026°39'1212.8
2014-Oct-01 20:29N 36°09' E 026°25'1512.5
2014-Oct-01 19:16N 36°09' E 026°06'912.5
2014-Oct-01 18:33N 36°09' E 025°55'1212.4
2014-Oct-01 17:33N 36°09' E 025°40'1212.3
2014-Oct-01 16:33N 36°09' E 025°24'1312.4
2014-Oct-01 15:33N 36°09' E 025°09'1312.6
2014-Oct-01 14:33N 36°10' E 024°53'1312.7
2014-Oct-01 13:33N 36°12' E 024°38'1312.8
2014-Oct-01 12:33N 36°13' E 024°22'1312.7
2014-Oct-01 11:33N 36°15' E 024°06'46111.8
2014-Sep-29 20:34N 36°38' E 014°34'1212.0
2014-Sep-29 19:34N 36°42' E 014°20'1312.6
2014-Sep-29 18:33N 36°47' E 014°06'1313.2
2014-Sep-29 17:34N 36°52' E 013°51'42011.7
2014-Sep-28 05:33N 37°24' E 005°06'1010.3
2014-Sep-28 04:33N 37°22' E 004°53'1211.6
2014-Sep-28 03:33N 37°20' E 004°39'1211.9
2014-Sep-28 02:33N 37°19' E 004°24'1212.0
2014-Sep-28 01:31N 37°16' E 004°08'46410.8
2014-Sep-26 06:33N 35°59' W 005°22'16013.3
2014-Sep-25 18:33N 36°25' W 008°37'6111.9
2014-Sep-25 13:26N 37°02' W 009°38'1213.3
2014-Sep-25 12:31N 37°14' W 009°41'1313.0
2014-Sep-25 11:32N 37°26' W 009°45'  
2014-Sep-22 09:29N 50°25' W 000°29'1611.9
2014-Sep-22 08:08N 50°29' W 000°05'711.2
2014-Sep-22 07:33N 50°31' E 000°05'1111.4
2014-Sep-22 06:34N 50°33' E 000°23'1212.3
2014-Sep-22 05:33N 50°37' E 000°41'1413.9
2014-Sep-22 04:33N 50°45' E 000°59'1714.3
2014-Sep-22 03:22N 50°56' E 001°20'1113.9
2014-Sep-22 02:33N 51°04' E 001°31'1212.4
2014-Sep-22 01:34N 51°13' E 001°45'1211.6
2014-Sep-22 00:33N 51°23' E 001°55'10 9.7
2014-Sep-21 23:33N 51°22' E 002°11'1010.1
2014-Sep-21 22:33N 51°22' E 002°27'1110.8
2014-Sep-21 21:31N 51°22' E 002°45'  

Dump ship's entire track history